createdAt,value
2019-05-16T00:00:29.309Z,32.90
2019-05-16T00:02:59.058Z,34.65
2019-05-16T00:05:28.469Z,34.98
2019-05-16T00:07:59.063Z,35.65
2019-05-16T00:10:28.714Z,29.90
2019-05-16T00:12:59.641Z,37.23
2019-05-16T00:15:29.042Z,32.17
2019-05-16T00:17:58.621Z,29.23
2019-05-16T00:20:28.609Z,30.23
2019-05-16T00:22:58.959Z,39.03
2019-05-16T00:25:28.740Z,29.00
2019-05-16T00:27:58.772Z,35.58
2019-05-16T00:30:29.448Z,24.00
2019-05-16T00:32:58.951Z,33.80
2019-05-16T00:35:28.685Z,18.85
2019-05-16T00:37:59.116Z,32.80
2019-05-16T00:40:28.559Z,27.75
2019-05-16T00:42:58.928Z,29.67
2019-05-16T00:45:29.594Z,25.15
2019-05-16T00:47:59.019Z,28.20
2019-05-16T00:50:28.993Z,24.02
2019-05-16T00:52:59.150Z,23.20
2019-05-16T00:55:29.812Z,23.50
2019-05-16T00:57:59.811Z,21.52
2019-05-16T01:00:38.111Z,24.05
2019-05-16T01:03:08.092Z,26.73
2019-05-16T01:05:38.881Z,25.15
2019-05-16T01:08:08.003Z,21.15
2019-05-16T01:10:38.915Z,26.65
2019-05-16T01:13:08.151Z,24.45
2019-05-16T01:15:38.344Z,21.90
2019-05-16T01:18:08.089Z,27.85
2019-05-16T01:20:38.661Z,29.92
2019-05-16T01:23:08.907Z,26.52
2019-05-16T01:25:38.860Z,24.72
2019-05-16T01:28:08.954Z,23.83
2019-05-16T01:30:38.302Z,24.65
2019-05-16T01:33:08.944Z,23.67
2019-05-16T01:35:38.766Z,20.88
2019-05-16T01:38:08.876Z,19.25
2019-05-16T01:40:38.792Z,18.82
2019-05-16T01:43:08.687Z,23.92
2019-05-16T01:45:38.409Z,23.20
2019-05-16T01:48:08.269Z,18.05
2019-05-16T01:50:38.996Z,23.25
2019-05-16T01:53:08.628Z,18.92
2019-05-16T01:55:38.472Z,21.85
2019-05-16T01:58:08.170Z,19.40
2019-05-16T02:00:47.965Z,24.02
2019-05-16T02:03:08.371Z,20.75
2019-05-16T02:05:38.888Z,20.60
2019-05-16T02:08:08.936Z,18.73
2019-05-16T02:10:39.291Z,15.32
2019-05-16T02:13:08.689Z,16.32
2019-05-16T02:15:38.482Z,15.38
2019-05-16T02:18:28.883Z,17.48
2019-05-16T02:21:01.182Z,14.93
2019-05-16T02:23:28.840Z,16.77
2019-05-16T02:25:58.167Z,17.62
2019-05-16T02:28:31.220Z,16.55
2019-05-16T02:31:00.979Z,19.07
2019-05-16T02:33:31.642Z,16.07
2019-05-16T02:36:01.822Z,15.45
2019-05-16T02:38:32.226Z,18.40
2019-05-16T02:41:03.135Z,16.20
2019-05-16T02:43:32.236Z,15.30
2019-05-16T02:46:01.711Z,13.95
2019-05-16T02:48:31.670Z,15.70
2019-05-16T02:51:01.993Z,16.05
2019-05-16T02:53:31.301Z,15.90
2019-05-16T02:56:01.362Z,15.03
2019-05-16T02:58:31.200Z,12.33
2019-05-16T03:01:01.807Z,12.98
2019-05-16T03:03:31.899Z,12.30
2019-05-16T03:06:02.300Z,12.80
2019-05-16T03:08:32.598Z,12.95
2019-05-16T03:11:02.059Z,10.32
2019-05-16T03:13:34.386Z,11.20
2019-05-16T03:16:05.039Z,11.60
2019-05-16T03:18:35.563Z,14.33
2019-05-16T03:21:14.036Z,11.70
2019-05-16T03:23:45.132Z,11.38
2019-05-16T03:26:14.915Z,12.53
2019-05-16T03:28:44.186Z,12.73
2019-05-16T03:31:15.442Z,14.28
2019-05-16T03:33:56.343Z,9.95
2019-05-16T03:36:16.810Z,10.40
2019-05-16T03:38:46.481Z,11.45
2019-05-16T03:41:16.871Z,9.25
2019-05-16T03:43:45.784Z,9.48
2019-05-16T03:46:15.448Z,8.08
2019-05-16T03:48:44.546Z,8.68
2019-05-16T03:51:14.421Z,11.73
2019-05-16T03:53:43.587Z,8.23
2019-05-16T03:56:33.538Z,9.10
2019-05-16T03:59:03.668Z,8.83
2019-05-16T04:01:32.956Z,9.85
2019-05-16T04:04:02.177Z,8.35
2019-05-16T04:06:32.259Z,9.03
2019-05-16T04:09:07.181Z,8.98
2019-05-16T04:11:36.305Z,10.23
2019-05-16T04:14:06.011Z,10.60
2019-05-16T04:16:51.057Z,6.67
2019-05-16T04:19:41.339Z,10.98
2019-05-16T04:22:12.004Z,8.00
2019-05-16T04:24:41.826Z,11.50
2019-05-16T04:27:12.012Z,9.10
2019-05-16T04:29:41.784Z,7.60
2019-05-16T04:32:11.153Z,6.85
2019-05-16T04:34:41.753Z,7.72
2019-05-16T04:37:11.724Z,8.70
2019-05-16T04:39:41.454Z,7.65
2019-05-16T04:42:11.238Z,6.10
2019-05-16T04:44:41.743Z,5.85
2019-05-16T04:47:11.349Z,7.53
2019-05-16T04:49:41.188Z,6.08
2019-05-16T04:52:11.305Z,8.40
2019-05-16T04:54:42.005Z,5.67
2019-05-16T04:57:12.147Z,8.73
2019-05-16T05:00:02.478Z,7.58
2019-05-16T05:02:32.082Z,8.43
2019-05-16T05:05:01.530Z,7.70
2019-05-16T05:07:31.788Z,8.78
2019-05-16T05:10:01.115Z,7.60
2019-05-16T05:12:31.574Z,8.05
2019-05-16T05:15:01.703Z,7.33
2019-05-16T05:17:31.225Z,8.25
2019-05-16T05:20:01.013Z,10.35
2019-05-16T05:22:31.404Z,6.37
2019-05-16T05:25:00.440Z,9.38
2019-05-16T05:27:30.331Z,9.48
2019-05-16T05:30:00.994Z,8.23
2019-05-16T05:32:30.977Z,8.68
2019-05-16T05:35:01.329Z,9.00
2019-05-16T05:37:30.353Z,7.90
2019-05-16T05:40:00.644Z,8.25
2019-05-16T05:42:31.508Z,8.23
2019-05-16T05:45:01.354Z,12.43
2019-05-16T05:47:31.035Z,6.70
2019-05-16T05:50:01.400Z,8.90
2019-05-16T05:52:30.664Z,5.90
2019-05-16T05:55:00.720Z,8.53
2019-05-16T05:57:30.478Z,11.73
2019-05-16T06:00:00.565Z,7.08
2019-05-16T06:02:30.983Z,5.87
2019-05-16T06:05:00.609Z,6.78
2019-05-16T06:07:29.991Z,7.00
2019-05-16T06:10:00.461Z,8.55
2019-05-16T06:12:30.333Z,4.58
2019-05-16T06:15:07.839Z,5.90
2019-05-16T06:17:31.654Z,10.18
2019-05-16T06:20:01.095Z,6.40
2019-05-16T06:22:30.634Z,9.33
2019-05-16T06:25:01.092Z,10.25
2019-05-16T06:27:30.705Z,8.93
2019-05-16T06:30:00.676Z,18.85
2019-05-16T06:32:30.908Z,8.33
2019-05-16T06:35:00.142Z,7.58
2019-05-16T06:37:31.004Z,7.95
2019-05-16T06:40:00.678Z,9.58
2019-05-16T06:42:30.103Z,6.45
2019-05-16T06:45:20.522Z,8.40
2019-05-16T06:47:50.568Z,9.75
2019-05-16T06:50:20.838Z,10.75
2019-05-16T06:52:50.375Z,7.67
2019-05-16T06:55:20.515Z,5.00
2019-05-16T06:57:50.285Z,7.20
2019-05-16T07:00:20.925Z,6.42
2019-05-16T07:02:50.762Z,8.55
2019-05-16T07:05:21.068Z,6.22
2019-05-16T07:07:51.041Z,4.03
2019-05-16T07:10:20.614Z,6.22
2019-05-16T07:12:50.367Z,5.05
2019-05-16T07:15:20.681Z,4.30
2019-05-16T07:17:50.774Z,8.90
2019-05-16T07:20:21.879Z,5.10
2019-05-16T07:22:50.922Z,6.28
2019-05-16T07:25:20.786Z,4.55
2019-05-16T07:27:51.085Z,4.12
2019-05-16T07:30:22.455Z,3.50
2019-05-16T07:32:51.594Z,4.83
2019-05-16T07:35:20.928Z,7.35
2019-05-16T07:37:50.284Z,4.05
2019-05-16T07:40:26.250Z,6.55
2019-05-16T07:42:50.936Z,5.15
2019-05-16T07:45:20.668Z,5.72
2019-05-16T07:47:50.949Z,4.80
2019-05-16T07:50:20.746Z,5.35
2019-05-16T07:52:51.165Z,5.45
2019-05-16T07:55:21.106Z,7.47
2019-05-16T07:57:50.798Z,4.33
2019-05-16T08:00:21.640Z,5.17
2019-05-16T08:02:51.294Z,3.98
2019-05-16T08:05:21.297Z,3.12
2019-05-16T08:07:51.506Z,7.15
2019-05-16T08:10:36.881Z,7.03
2019-05-16T08:12:51.603Z,4.12
2019-05-16T08:15:21.638Z,4.25
2019-05-16T08:17:51.412Z,4.72
2019-05-16T08:20:22.001Z,6.40
2019-05-16T08:22:51.878Z,4.83
2019-05-16T08:25:20.984Z,4.65
2019-05-16T08:27:51.957Z,3.55
2019-05-16T08:30:21.530Z,4.10
2019-05-16T08:32:52.855Z,5.17
2019-05-16T08:35:21.364Z,5.05
2019-05-16T08:37:51.441Z,7.22
2019-05-16T08:40:21.795Z,5.45
2019-05-16T08:42:52.029Z,4.50
2019-05-16T08:45:22.641Z,3.37
2019-05-16T08:50:11.513Z,4.40
2019-05-16T08:50:24.007Z,3.58
2019-05-16T08:52:53.399Z,6.17
2019-05-16T08:55:22.584Z,4.53
2019-05-16T08:57:52.931Z,4.75
2019-05-16T09:00:23.772Z,6.30
2019-05-16T09:02:53.222Z,4.67
2019-05-16T09:05:23.394Z,3.15
2019-05-16T09:08:00.426Z,5.42
2019-05-16T09:12:57.227Z,5.30
2019-05-16T09:15:27.315Z,5.30
2019-05-16T09:17:58.100Z,3.40
2019-05-16T09:20:28.187Z,4.20
2019-05-16T09:22:57.946Z,4.97
2019-05-16T09:25:27.574Z,5.22
2019-05-16T09:27:56.986Z,4.15
2019-05-16T09:30:27.521Z,5.53
2019-05-16T09:32:58.740Z,4.05
2019-05-16T09:35:28.264Z,7.12
2019-05-16T09:37:57.640Z,3.72
2019-05-16T09:40:27.792Z,6.45
2019-05-16T09:42:57.118Z,5.17
2019-05-16T09:45:27.256Z,5.25
2019-05-16T09:47:57.394Z,5.08
2019-05-16T09:50:27.678Z,5.30
2019-05-16T09:52:56.984Z,4.37
2019-05-16T09:55:26.842Z,4.08
2019-05-16T09:57:58.414Z,5.37
2019-05-16T10:00:27.748Z,6.25
2019-05-16T10:02:58.050Z,4.37
2019-05-16T10:05:28.192Z,3.35
2019-05-16T10:07:57.596Z,4.03
2019-05-16T10:10:27.423Z,6.53
2019-05-16T10:12:56.495Z,4.80
2019-05-16T10:15:26.983Z,4.25
2019-05-16T10:17:57.495Z,7.05
2019-05-16T10:20:27.388Z,4.08
2019-05-16T10:22:57.968Z,6.03
2019-05-16T10:25:27.708Z,3.52
2019-05-16T10:27:56.834Z,3.72
2019-05-16T10:30:26.955Z,4.03
2019-05-16T10:32:57.564Z,5.08
2019-05-16T10:35:29.811Z,4.97
2019-05-16T10:37:57.670Z,3.72
2019-05-16T10:40:27.796Z,3.85
2019-05-16T10:42:57.912Z,3.50
2019-05-16T10:45:27.401Z,5.80
2019-05-16T10:47:56.405Z,4.28
2019-05-16T10:50:27.435Z,2.87
2019-05-16T10:53:20.241Z,2.72
2019-05-16T10:55:27.783Z,4.58
2019-05-16T10:57:57.034Z,4.60
2019-05-16T11:00:46.925Z,6.03
2019-05-16T11:02:58.697Z,3.02
2019-05-16T11:05:33.659Z,4.90
2019-05-16T11:07:57.962Z,3.85
2019-05-16T11:10:29.675Z,2.50
2019-05-16T11:12:59.727Z,5.45
2019-05-16T11:15:28.367Z,4.40
2019-05-16T11:18:00.038Z,4.83
2019-05-16T11:20:28.749Z,3.77
2019-05-16T11:22:57.648Z,4.20
2019-05-16T11:25:31.759Z,3.58
2019-05-16T11:27:58.197Z,3.85
2019-05-16T11:30:28.090Z,4.50
2019-05-16T11:32:57.234Z,3.55
2019-05-16T11:35:27.313Z,3.87
2019-05-16T11:37:57.124Z,3.05
2019-05-16T11:40:26.431Z,4.15
2019-05-16T11:43:06.773Z,3.40
2019-05-16T11:45:27.224Z,3.20
2019-05-16T11:47:56.761Z,3.95
2019-05-16T11:50:28.064Z,3.42
2019-05-16T11:52:57.029Z,9.70
2019-05-16T11:55:32.343Z,7.03
2019-05-16T11:57:56.921Z,4.95
2019-05-16T12:00:30.153Z,3.10
2019-05-16T12:02:56.810Z,3.30
2019-05-16T12:05:26.997Z,2.60
2019-05-16T12:07:57.440Z,2.62
2019-05-16T12:10:27.071Z,3.25
2019-05-16T12:12:56.766Z,3.42
2019-05-16T12:15:27.375Z,2.10
2019-05-16T12:18:01.774Z,3.37
2019-05-16T12:20:27.461Z,5.85
2019-05-16T12:22:56.740Z,4.83
2019-05-16T12:25:27.347Z,2.12
2019-05-16T12:27:56.975Z,2.62
2019-05-16T12:30:26.320Z,6.83
2019-05-16T12:32:58.017Z,3.12
2019-05-16T12:35:27.762Z,3.05
2019-05-16T12:37:57.030Z,4.90
2019-05-16T12:40:26.850Z,2.40
2019-05-16T12:42:57.282Z,3.40
2019-05-16T12:45:27.500Z,3.47
2019-05-16T12:47:57.349Z,2.98
2019-05-16T12:50:28.574Z,2.00
2019-05-16T12:52:57.241Z,4.35
2019-05-16T12:55:27.170Z,4.40
2019-05-16T12:58:11.792Z,4.67
2019-05-16T13:00:27.636Z,2.60
2019-05-16T13:02:57.508Z,4.28
2019-05-16T13:05:26.889Z,4.00
2019-05-16T13:07:56.023Z,2.08
2019-05-16T13:10:27.076Z,3.35
2019-05-16T13:12:57.977Z,2.65
2019-05-16T13:15:27.361Z,3.92
2019-05-16T13:17:59.224Z,3.70
2019-05-16T13:20:28.243Z,3.72
2019-05-16T13:22:57.155Z,3.75
2019-05-16T13:25:27.275Z,3.60
2019-05-16T13:27:57.855Z,2.80
2019-05-16T13:30:27.195Z,3.27
2019-05-16T13:32:56.561Z,4.05
2019-05-16T13:35:27.060Z,2.37
2019-05-16T13:37:58.034Z,1.82
2019-05-16T13:40:27.696Z,3.40
2019-05-16T13:42:57.355Z,3.45
2019-05-16T13:45:27.255Z,5.87
2019-05-16T13:47:57.309Z,2.87
2019-05-16T13:50:27.326Z,4.87
2019-05-16T13:52:58.502Z,6.80
2019-05-16T13:55:27.207Z,1.67
2019-05-16T13:57:57.039Z,2.30
2019-05-16T14:00:27.909Z,3.50
2019-05-16T14:02:56.647Z,3.47
2019-05-16T14:05:26.770Z,1.70
2019-05-16T14:07:57.235Z,5.62
2019-05-16T14:10:29.619Z,1.90
2019-05-16T14:12:57.726Z,2.98
2019-05-16T14:15:27.124Z,3.35
2019-05-16T14:17:56.802Z,3.20
2019-05-16T14:20:25.898Z,1.95
2019-05-16T14:22:57.131Z,3.52
2019-05-16T14:25:25.534Z,1.72
2019-05-16T14:27:56.695Z,2.52
2019-05-16T14:30:25.075Z,1.60
2019-05-16T14:32:54.022Z,4.33
2019-05-16T14:35:23.207Z,1.80
2019-05-16T14:37:57.384Z,3.77
2019-05-16T14:40:23.039Z,5.62
2019-05-16T14:42:52.341Z,3.87
2019-05-16T14:45:21.333Z,3.65
2019-05-16T14:47:50.225Z,6.12
2019-05-16T14:50:20.048Z,3.25
2019-05-16T14:52:49.174Z,4.45
2019-05-16T14:55:18.838Z,3.22
2019-05-16T14:57:47.930Z,3.05
2019-05-16T15:00:18.568Z,3.40
2019-05-16T15:02:48.374Z,3.17
2019-05-16T15:05:17.932Z,2.58
2019-05-16T15:07:48.350Z,3.20
2019-05-16T15:10:17.907Z,6.47
2019-05-16T15:12:47.079Z,5.62
2019-05-16T15:15:24.109Z,4.00
2019-05-16T15:17:49.416Z,4.10
2019-05-16T15:20:18.940Z,3.02
2019-05-16T15:22:48.007Z,3.30
2019-05-16T15:25:17.596Z,4.62
2019-05-16T15:27:47.914Z,3.27
2019-05-16T15:30:17.516Z,4.97
2019-05-16T15:32:48.064Z,3.80
2019-05-16T15:35:18.084Z,4.35
2019-05-16T15:37:48.452Z,5.33
2019-05-16T15:40:18.093Z,3.92
2019-05-16T15:42:47.055Z,5.03
2019-05-16T15:45:17.841Z,4.15
2019-05-16T15:47:47.848Z,3.30
2019-05-16T15:50:18.233Z,3.52
2019-05-16T15:52:48.070Z,2.20
2019-05-16T15:55:17.948Z,4.40
2019-05-16T15:57:47.686Z,5.08
2019-05-16T16:00:19.793Z,2.85
2019-05-16T16:02:48.765Z,3.47
2019-05-16T16:05:18.154Z,4.08
2019-05-16T16:07:48.249Z,5.90
2019-05-16T16:10:20.454Z,7.00
2019-05-16T16:12:49.649Z,4.78
2019-05-16T16:15:18.749Z,3.27
2019-05-16T16:17:48.345Z,2.83
2019-05-16T16:20:17.816Z,4.10
2019-05-16T16:22:47.154Z,4.30
2019-05-16T16:25:18.203Z,3.00
2019-05-16T16:27:47.198Z,4.10
2019-05-16T16:30:18.685Z,7.20
2019-05-16T16:32:47.433Z,4.35
2019-05-16T16:35:18.471Z,3.83
2019-05-16T16:37:47.679Z,7.33
2019-05-16T16:40:17.702Z,3.25
2019-05-16T16:42:48.057Z,5.67
2019-05-16T16:45:18.695Z,5.08
2019-05-16T16:47:48.061Z,3.10
2019-05-16T16:50:17.892Z,3.58
2019-05-16T16:52:47.625Z,2.20
2019-05-16T16:55:17.714Z,3.12
2019-05-16T16:57:47.375Z,2.33
2019-05-16T17:00:17.831Z,2.20
2019-05-16T17:03:02.095Z,3.90
2019-05-16T17:05:17.881Z,3.55
2019-05-16T17:07:48.676Z,3.10
2019-05-16T17:10:21.166Z,2.98
2019-05-16T17:12:49.845Z,4.53
2019-05-16T17:15:19.758Z,3.65
2019-05-16T17:17:48.946Z,2.85
2019-05-16T17:20:18.067Z,4.90
2019-05-16T17:22:47.148Z,2.92
2019-05-16T17:25:16.434Z,7.67
2019-05-16T17:27:46.828Z,3.40
2019-05-16T17:30:19.354Z,2.60
2019-05-16T17:32:48.230Z,2.45
2019-05-16T17:35:19.167Z,4.70
2019-05-16T17:37:48.992Z,4.00
2019-05-16T17:40:18.755Z,4.47
2019-05-16T17:42:48.115Z,2.40
2019-05-16T17:45:18.307Z,3.33
2019-05-16T17:47:47.666Z,4.20
2019-05-16T17:50:18.892Z,2.55
2019-05-16T17:52:48.080Z,5.12
2019-05-16T17:55:18.896Z,2.37
2019-05-16T17:57:48.150Z,5.05
2019-05-16T18:00:25.310Z,3.02
2019-05-16T18:02:48.281Z,4.55
2019-05-16T18:05:18.166Z,3.47
2019-05-16T18:07:47.687Z,6.83
2019-05-16T18:10:17.953Z,2.33
2019-05-16T18:12:47.978Z,3.90
2019-05-16T18:15:20.470Z,4.12
2019-05-16T18:17:50.174Z,2.80
2019-05-16T18:20:22.264Z,3.12
2019-05-16T18:22:51.155Z,3.67
2019-05-16T18:25:20.516Z,6.35
2019-05-16T18:27:50.255Z,3.70
2019-05-16T18:30:22.438Z,3.22
2019-05-16T18:32:51.818Z,3.62
2019-05-16T18:35:20.999Z,4.17
2019-05-16T18:37:50.708Z,3.85
2019-05-16T18:40:21.236Z,4.37
2019-05-16T18:42:50.489Z,3.92
2019-05-16T18:45:20.045Z,4.28
2019-05-16T18:47:50.417Z,6.92
2019-05-16T18:50:21.705Z,9.18
2019-05-16T18:52:50.842Z,7.12
2019-05-16T18:55:22.362Z,3.87
2019-05-16T18:57:51.503Z,3.20
2019-05-16T19:00:21.282Z,3.52
2019-05-16T19:02:50.472Z,4.03
2019-05-16T19:05:19.967Z,4.40
2019-05-16T19:07:49.163Z,4.37
2019-05-16T19:10:19.454Z,3.90
2019-05-16T19:12:48.686Z,5.15
2019-05-16T19:15:18.805Z,5.20
2019-05-16T19:17:47.906Z,3.77
2019-05-16T19:20:18.529Z,3.77
2019-05-16T19:22:48.143Z,3.87
2019-05-16T19:25:18.452Z,5.45
2019-05-16T19:27:47.761Z,4.90
2019-05-16T19:30:17.810Z,5.95
2019-05-16T19:32:47.202Z,4.00
2019-05-16T19:35:17.301Z,6.22
2019-05-16T19:37:47.235Z,3.95
2019-05-16T19:40:17.172Z,3.95
2019-05-16T19:42:47.254Z,6.72
2019-05-16T19:45:17.224Z,5.10
2019-05-16T19:47:47.022Z,4.12
2019-05-16T19:50:17.401Z,5.60
2019-05-16T19:52:47.187Z,4.08
2019-05-16T19:55:17.228Z,6.58
2019-05-16T19:57:46.742Z,5.30
2019-05-16T20:00:17.423Z,4.60
2019-05-16T20:02:47.309Z,3.02
2019-05-16T20:05:17.038Z,4.28
2019-05-16T20:07:46.439Z,4.20
2019-05-16T20:10:17.040Z,5.40
2019-05-16T20:12:46.428Z,5.55
2019-05-16T20:15:18.804Z,3.60
2019-05-16T20:17:54.136Z,6.10
2019-05-16T20:20:19.036Z,3.40
2019-05-16T20:22:48.157Z,3.55
2019-05-16T20:25:17.231Z,4.17
2019-05-16T20:27:47.108Z,4.37
2019-05-16T20:30:17.197Z,2.60
2019-05-16T20:32:46.345Z,4.33
2019-05-16T20:35:17.413Z,5.42
2019-05-16T20:37:47.327Z,4.45
2019-05-16T20:40:17.314Z,7.33
2019-05-16T20:42:47.566Z,4.08
2019-05-16T20:45:18.577Z,6.03
2019-05-16T20:47:47.672Z,4.80
2019-05-16T20:50:17.103Z,3.35
2019-05-16T20:52:46.584Z,3.80
2019-05-16T20:55:17.561Z,3.85
2019-05-16T20:57:48.512Z,5.30
2019-05-16T21:00:18.859Z,5.05
2019-05-16T21:02:49.478Z,3.92
2019-05-16T21:05:18.715Z,3.65
2019-05-16T21:07:48.870Z,6.60
2019-05-16T21:10:19.459Z,6.55
2019-05-16T21:12:49.474Z,6.85
2019-05-16T21:15:19.594Z,4.70
2019-05-16T21:17:50.747Z,4.67
2019-05-16T21:20:20.565Z,3.77
2019-05-16T21:22:49.646Z,3.15
2019-05-16T21:25:19.004Z,3.37
2019-05-16T21:27:48.144Z,3.50
2019-05-16T21:30:19.144Z,4.70
2019-05-16T21:32:48.377Z,3.92
2019-05-16T21:35:17.482Z,3.98
2019-05-16T21:37:46.781Z,4.62
2019-05-16T21:40:17.000Z,5.47
2019-05-16T21:42:46.192Z,3.80
2019-05-16T21:45:15.695Z,3.87
2019-05-16T21:47:46.940Z,2.60
2019-05-16T21:50:16.372Z,4.03
2019-05-16T21:52:47.083Z,3.15
2019-05-16T21:55:17.582Z,3.35
2019-05-16T21:57:47.317Z,3.08
2019-05-16T22:00:19.377Z,2.33
2019-05-16T22:02:48.478Z,3.72
2019-05-16T22:05:17.679Z,8.68
2019-05-16T22:07:47.384Z,4.53
2019-05-16T22:10:17.393Z,3.08
2019-05-16T22:12:47.658Z,3.12
2019-05-16T22:15:17.199Z,3.83
2019-05-16T22:17:47.181Z,3.90
2019-05-16T22:20:16.765Z,4.65
2019-05-16T22:22:46.956Z,3.60
2019-05-16T22:25:16.860Z,5.15
2019-05-16T22:27:48.901Z,4.53
2019-05-16T22:30:18.875Z,6.45
2019-05-16T22:32:48.772Z,4.28
2019-05-16T22:35:19.921Z,5.47
2019-05-16T22:37:55.579Z,5.15
2019-05-16T22:40:21.143Z,6.12
2019-05-16T22:42:50.272Z,5.25
2019-05-16T22:45:21.286Z,4.45
2019-05-16T22:47:50.510Z,4.87
2019-05-16T22:50:20.436Z,7.22
2019-05-16T22:52:49.727Z,5.45
2019-05-16T22:55:19.022Z,3.75
2019-05-16T22:57:48.013Z,6.17
2019-05-16T23:00:26.571Z,5.42
2019-05-16T23:02:56.604Z,3.95
2019-05-16T23:05:27.389Z,6.35
2019-05-16T23:08:05.744Z,4.65
2019-05-16T23:10:28.070Z,4.42
2019-05-16T23:12:58.103Z,5.65
2019-05-16T23:15:27.348Z,4.60
2019-05-16T23:17:57.380Z,7.33
2019-05-16T23:20:27.761Z,6.83
2019-05-16T23:22:56.883Z,5.75
2019-05-16T23:25:25.986Z,6.22
2019-05-16T23:27:56.631Z,9.43
2019-05-16T23:30:27.232Z,6.20
2019-05-16T23:32:56.548Z,6.03
2019-05-16T23:35:26.924Z,11.57
2019-05-16T23:37:56.987Z,17.55
2019-05-16T23:40:26.177Z,25.70
2019-05-16T23:42:56.951Z,13.93
2019-05-16T23:45:27.516Z,15.68
2019-05-16T23:47:56.642Z,13.55
2019-05-16T23:50:27.538Z,26.55
2019-05-16T23:52:56.877Z,43.33
2019-05-16T23:55:27.812Z,13.88
2019-05-16T23:57:57.133Z,18.65
